sensor_id;sensor_type;location;lat;lon;timestamp;P1;durP1;ratioP1;P2;durP2;ratioP2
65206;SDS011;58477;48.072;11.970;2023-02-28T00:00:18;3.35;;;2.67;;
65206;SDS011;58477;48.072;11.970;2023-02-28T00:02:44;4.15;;;3.22;;
65206;SDS011;58477;48.072;11.970;2023-02-28T00:05:11;2.38;;;2.17;;
65206;SDS011;58477;48.072;11.970;2023-02-28T00:07:38;4.05;;;3.00;;
65206;SDS011;58477;48.072;11.970;2023-02-28T00:10:04;7.35;;;4.00;;
65206;SDS011;58477;48.072;11.970;2023-02-28T00:12:32;4.38;;;2.58;;
65206;SDS011;58477;48.072;11.970;2023-02-28T00:14:58;4.63;;;2.45;;
65206;SDS011;58477;48.072;11.970;2023-02-28T00:17:24;4.63;;;4.03;;
65206;SDS011;58477;48.072;11.970;2023-02-28T00:19:50;2.75;;;2.55;;
65206;SDS011;58477;48.072;11.970;2023-02-28T00:22:17;6.75;;;3.80;;
65206;SDS011;58477;48.072;11.970;2023-02-28T00:24:44;4.53;;;3.45;;
65206;SDS011;58477;48.072;11.970;2023-02-28T00:27:09;5.43;;;3.63;;
65206;SDS011;58477;48.072;11.970;2023-02-28T00:29:35;4.90;;;3.63;;
65206;SDS011;58477;48.072;11.970;2023-02-28T00:32:02;4.55;;;3.15;;
65206;SDS011;58477;48.072;11.970;2023-02-28T00:34:29;5.05;;;2.83;;
65206;SDS011;58477;48.072;11.970;2023-02-28T00:36:55;4.30;;;3.83;;
65206;SDS011;58477;48.072;11.970;2023-02-28T00:39:20;7.90;;;3.25;;
65206;SDS011;58477;48.072;11.970;2023-02-28T00:41:47;6.50;;;3.55;;
65206;SDS011;58477;48.072;11.970;2023-02-28T00:44:13;5.65;;;3.35;;
65206;SDS011;58477;48.072;11.970;2023-02-28T00:46:38;4.75;;;3.28;;
65206;SDS011;58477;48.072;11.970;2023-02-28T00:49:03;4.65;;;3.35;;
65206;SDS011;58477;48.072;11.970;2023-02-28T00:51:29;6.28;;;3.83;;
65206;SDS011;58477;48.072;11.970;2023-02-28T00:53:56;4.93;;;3.08;;
65206;SDS011;58477;48.072;11.970;2023-02-28T00:56:22;4.10;;;3.35;;
65206;SDS011;58477;48.072;11.970;2023-02-28T00:58:48;4.82;;;3.28;;
65206;SDS011;58477;48.072;11.970;2023-02-28T01:01:13;4.85;;;3.75;;
65206;SDS011;58477;48.072;11.970;2023-02-28T01:03:39;4.30;;;3.58;;
65206;SDS011;58477;48.072;11.970;2023-02-28T01:06:04;5.13;;;2.97;;
65206;SDS011;58477;48.072;11.970;2023-02-28T01:08:30;5.00;;;3.25;;
65206;SDS011;58477;48.072;11.970;2023-02-28T01:10:55;5.90;;;3.88;;
65206;SDS011;58477;48.072;11.970;2023-02-28T01:13:21;5.18;;;3.90;;
65206;SDS011;58477;48.072;11.970;2023-02-28T01:15:52;4.75;;;3.25;;
65206;SDS011;58477;48.072;11.970;2023-02-28T01:18:20;7.63;;;3.95;;
65206;SDS011;58477;48.072;11.970;2023-02-28T01:20:46;7.85;;;3.55;;
65206;SDS011;58477;48.072;11.970;2023-02-28T01:23:12;5.18;;;3.65;;
65206;SDS011;58477;48.072;11.970;2023-02-28T01:25:37;4.57;;;2.83;;
65206;SDS011;58477;48.072;11.970;2023-02-28T01:28:04;6.07;;;4.05;;
65206;SDS011;58477;48.072;11.970;2023-02-28T01:30:30;5.03;;;3.92;;
65206;SDS011;58477;48.072;11.970;2023-02-28T01:32:56;6.38;;;4.50;;
65206;SDS011;58477;48.072;11.970;2023-02-28T01:35:24;6.13;;;3.85;;
65206;SDS011;58477;48.072;11.970;2023-02-28T01:37:49;6.93;;;4.13;;
65206;SDS011;58477;48.072;11.970;2023-02-28T01:40:15;4.47;;;3.65;;
65206;SDS011;58477;48.072;11.970;2023-02-28T01:42:40;4.10;;;3.10;;
65206;SDS011;58477;48.072;11.970;2023-02-28T01:47:43;10.38;;;4.80;;
65206;SDS011;58477;48.072;11.970;2023-02-28T01:50:11;4.35;;;3.55;;
65206;SDS011;58477;48.072;11.970;2023-02-28T01:52:40;8.15;;;3.78;;
65206;SDS011;58477;48.072;11.970;2023-02-28T01:55:07;3.75;;;3.38;;
65206;SDS011;58477;48.072;11.970;2023-02-28T01:57:37;7.63;;;3.72;;
65206;SDS011;58477;48.072;11.970;2023-02-28T02:00:09;6.25;;;4.00;;
65206;SDS011;58477;48.072;11.970;2023-02-28T02:02:38;8.00;;;5.28;;
65206;SDS011;58477;48.072;11.970;2023-02-28T02:05:08;6.53;;;3.85;;
65206;SDS011;58477;48.072;11.970;2023-02-28T02:07:36;4.13;;;3.37;;
65206;SDS011;58477;48.072;11.970;2023-02-28T02:10:50;6.22;;;3.97;;
65206;SDS011;58477;48.072;11.970;2023-02-28T02:13:16;6.57;;;4.20;;
65206;SDS011;58477;48.072;11.970;2023-02-28T02:15:48;3.28;;;2.92;;
65206;SDS011;58477;48.072;11.970;2023-02-28T02:33:02;6.65;;;4.85;;
65206;SDS011;58477;48.072;11.970;2023-02-28T02:35:40;6.53;;;3.92;;
65206;SDS011;58477;48.072;11.970;2023-02-28T02:38:18;4.68;;;3.90;;
65206;SDS011;58477;48.072;11.970;2023-02-28T02:40:52;5.15;;;2.65;;
65206;SDS011;58477;48.072;11.970;2023-02-28T02:43:25;8.48;;;3.42;;
65206;SDS011;58477;48.072;11.970;2023-02-28T02:46:19;4.55;;;3.22;;
65206;SDS011;58477;48.072;11.970;2023-02-28T02:48:48;4.63;;;3.67;;
65206;SDS011;58477;48.072;11.970;2023-02-28T02:51:18;4.32;;;3.42;;
65206;SDS011;58477;48.072;11.970;2023-02-28T02:53:49;9.98;;;3.85;;
65206;SDS011;58477;48.072;11.970;2023-02-28T02:56:19;8.60;;;3.13;;
65206;SDS011;58477;48.072;11.970;2023-02-28T02:58:49;7.72;;;5.50;;
65206;SDS011;58477;48.072;11.970;2023-02-28T03:01:19;8.77;;;5.78;;
65206;SDS011;58477;48.072;11.970;2023-02-28T03:03:54;8.57;;;5.53;;
65206;SDS011;58477;48.072;11.970;2023-02-28T03:06:22;6.80;;;4.95;;
65206;SDS011;58477;48.072;11.970;2023-02-28T03:08:47;6.70;;;4.40;;
65206;SDS011;58477;48.072;11.970;2023-02-28T03:11:14;12.43;;;5.82;;
65206;SDS011;58477;48.072;11.970;2023-02-28T03:22:35;9.13;;;5.78;;
65206;SDS011;58477;48.072;11.970;2023-02-28T03:28:25;8.43;;;5.05;;
65206;SDS011;58477;48.072;11.970;2023-02-28T03:31:23;8.88;;;5.82;;
65206;SDS011;58477;48.072;11.970;2023-02-28T03:34:16;8.68;;;5.20;;
65206;SDS011;58477;48.072;11.970;2023-02-28T03:36:48;11.50;;;7.22;;
65206;SDS011;58477;48.072;11.970;2023-02-28T03:39:20;11.20;;;7.10;;
65206;SDS011;58477;48.072;11.970;2023-02-28T03:41:52;9.70;;;6.32;;
65206;SDS011;58477;48.072;11.970;2023-02-28T03:47:16;11.68;;;6.22;;
65206;SDS011;58477;48.072;11.970;2023-02-28T03:52:33;10.43;;;6.05;;
65206;SDS011;58477;48.072;11.970;2023-02-28T03:55:04;12.90;;;7.82;;
65206;SDS011;58477;48.072;11.970;2023-02-28T03:57:39;11.15;;;6.72;;
65206;SDS011;58477;48.072;11.970;2023-02-28T04:00:20;13.32;;;6.03;;
65206;SDS011;58477;48.072;11.970;2023-02-28T04:02:48;9.75;;;6.95;;
65206;SDS011;58477;48.072;11.970;2023-02-28T04:05:18;8.93;;;5.47;;
65206;SDS011;58477;48.072;11.970;2023-02-28T04:07:44;14.75;;;6.32;;
65206;SDS011;58477;48.072;11.970;2023-02-28T04:10:11;7.25;;;4.15;;
65206;SDS011;58477;48.072;11.970;2023-02-28T04:12:37;10.20;;;6.80;;
65206;SDS011;58477;48.072;11.970;2023-02-28T04:15:03;8.52;;;5.65;;
65206;SDS011;58477;48.072;11.970;2023-02-28T04:17:29;9.00;;;4.90;;
65206;SDS011;58477;48.072;11.970;2023-02-28T04:19:54;13.10;;;8.20;;
65206;SDS011;58477;48.072;11.970;2023-02-28T04:22:22;7.70;;;4.95;;
65206;SDS011;58477;48.072;11.970;2023-02-28T04:24:50;12.20;;;7.38;;
65206;SDS011;58477;48.072;11.970;2023-02-28T04:27:16;11.75;;;7.43;;
65206;SDS011;58477;48.072;11.970;2023-02-28T04:29:41;14.00;;;8.02;;
65206;SDS011;58477;48.072;11.970;2023-02-28T04:32:09;11.60;;;6.57;;
65206;SDS011;58477;48.072;11.970;2023-02-28T04:34:35;12.98;;;8.30;;
65206;SDS011;58477;48.072;11.970;2023-02-28T04:37:01;48.03;;;16.67;;
65206;SDS011;58477;48.072;11.970;2023-02-28T04:39:28;37.22;;;15.52;;
65206;SDS011;58477;48.072;11.970;2023-02-28T04:41:54;16.95;;;9.00;;
65206;SDS011;58477;48.072;11.970;2023-02-28T04:44:20;17.17;;;8.68;;
65206;SDS011;58477;48.072;11.970;2023-02-28T04:46:47;14.07;;;9.95;;
65206;SDS011;58477;48.072;11.970;2023-02-28T04:49:13;10.07;;;5.85;;
65206;SDS011;58477;48.072;11.970;2023-02-28T04:51:39;12.95;;;7.95;;
65206;SDS011;58477;48.072;11.970;2023-02-28T04:54:05;10.65;;;6.53;;
65206;SDS011;58477;48.072;11.970;2023-02-28T04:56:30;9.20;;;6.25;;
65206;SDS011;58477;48.072;11.970;2023-02-28T04:58:56;13.50;;;6.60;;
65206;SDS011;58477;48.072;11.970;2023-02-28T05:01:25;12.15;;;7.45;;
65206;SDS011;58477;48.072;11.970;2023-02-28T05:03:53;16.27;;;9.40;;
65206;SDS011;58477;48.072;11.970;2023-02-28T05:06:20;13.57;;;7.90;;
65206;SDS011;58477;48.072;11.970;2023-02-28T05:08:48;13.80;;;8.88;;
65206;SDS011;58477;48.072;11.970;2023-02-28T05:11:33;15.02;;;7.93;;
65206;SDS011;58477;48.072;11.970;2023-02-28T05:14:04;11.18;;;7.38;;
65206;SDS011;58477;48.072;11.970;2023-02-28T05:16:31;18.40;;;8.65;;
65206;SDS011;58477;48.072;11.970;2023-02-28T05:18:57;14.15;;;9.70;;
65206;SDS011;58477;48.072;11.970;2023-02-28T05:21:24;15.02;;;8.23;;
65206;SDS011;58477;48.072;11.970;2023-02-28T05:23:59;17.27;;;6.97;;
65206;SDS011;58477;48.072;11.970;2023-02-28T05:26:26;14.60;;;9.40;;
65206;SDS011;58477;48.072;11.970;2023-02-28T05:28:53;16.83;;;9.85;;
65206;SDS011;58477;48.072;11.970;2023-02-28T05:31:18;9.32;;;6.53;;
65206;SDS011;58477;48.072;11.970;2023-02-28T05:33:44;15.52;;;9.07;;
65206;SDS011;58477;48.072;11.970;2023-02-28T05:36:09;13.30;;;7.63;;
65206;SDS011;58477;48.072;11.970;2023-02-28T05:38:35;19.50;;;10.23;;
65206;SDS011;58477;48.072;11.970;2023-02-28T05:41:04;13.65;;;8.48;;
65206;SDS011;58477;48.072;11.970;2023-02-28T05:43:34;22.08;;;11.20;;
65206;SDS011;58477;48.072;11.970;2023-02-28T05:46:01;17.48;;;9.18;;
65206;SDS011;58477;48.072;11.970;2023-02-28T05:48:31;16.48;;;9.88;;
65206;SDS011;58477;48.072;11.970;2023-02-28T05:50:58;19.25;;;9.65;;
65206;SDS011;58477;48.072;11.970;2023-02-28T05:53:23;18.58;;;11.48;;
65206;SDS011;58477;48.072;11.970;2023-02-28T05:55:49;16.15;;;9.25;;
65206;SDS011;58477;48.072;11.970;2023-02-28T05:58:15;14.80;;;9.63;;
65206;SDS011;58477;48.072;11.970;2023-02-28T06:00:41;20.50;;;11.75;;
65206;SDS011;58477;48.072;11.970;2023-02-28T06:03:06;17.17;;;10.57;;
65206;SDS011;58477;48.072;11.970;2023-02-28T06:05:32;12.98;;;7.03;;
65206;SDS011;58477;48.072;11.970;2023-02-28T06:07:58;18.60;;;9.95;;
65206;SDS011;58477;48.072;11.970;2023-02-28T06:10:23;14.88;;;9.32;;
65206;SDS011;58477;48.072;11.970;2023-02-28T06:12:49;19.35;;;11.48;;
65206;SDS011;58477;48.072;11.970;2023-02-28T06:15:14;14.82;;;9.10;;
65206;SDS011;58477;48.072;11.970;2023-02-28T06:17:42;19.95;;;11.35;;
65206;SDS011;58477;48.072;11.970;2023-02-28T06:20:09;9.70;;;7.25;;
65206;SDS011;58477;48.072;11.970;2023-02-28T06:22:38;17.30;;;9.40;;
65206;SDS011;58477;48.072;11.970;2023-02-28T06:25:04;27.05;;;11.90;;
65206;SDS011;58477;48.072;11.970;2023-02-28T06:27:31;16.23;;;10.25;;
65206;SDS011;58477;48.072;11.970;2023-02-28T06:29:58;11.55;;;6.75;;
65206;SDS011;58477;48.072;11.970;2023-02-28T06:32:23;17.23;;;10.95;;
65206;SDS011;58477;48.072;11.970;2023-02-28T06:34:48;19.08;;;9.95;;
65206;SDS011;58477;48.072;11.970;2023-02-28T06:37:15;12.20;;;7.85;;
65206;SDS011;58477;48.072;11.970;2023-02-28T06:39:41;13.95;;;7.00;;
65206;SDS011;58477;48.072;11.970;2023-02-28T06:42:06;15.93;;;9.25;;
65206;SDS011;58477;48.072;11.970;2023-02-28T06:44:32;17.27;;;11.18;;
65206;SDS011;58477;48.072;11.970;2023-02-28T06:47:03;16.80;;;10.38;;
65206;SDS011;58477;48.072;11.970;2023-02-28T06:49:30;12.02;;;7.55;;
65206;SDS011;58477;48.072;11.970;2023-02-28T06:51:57;15.38;;;10.20;;
65206;SDS011;58477;48.072;11.970;2023-02-28T06:54:23;17.42;;;9.02;;
65206;SDS011;58477;48.072;11.970;2023-02-28T06:56:48;19.00;;;11.75;;
65206;SDS011;58477;48.072;11.970;2023-02-28T06:59:14;15.20;;;10.02;;
65206;SDS011;58477;48.072;11.970;2023-02-28T07:01:39;19.42;;;11.55;;
65206;SDS011;58477;48.072;11.970;2023-02-28T07:04:05;14.55;;;8.52;;
65206;SDS011;58477;48.072;11.970;2023-02-28T07:06:31;22.98;;;15.20;;
65206;SDS011;58477;48.072;11.970;2023-02-28T07:08:57;19.10;;;11.07;;
65206;SDS011;58477;48.072;11.970;2023-02-28T07:11:24;16.52;;;9.85;;
65206;SDS011;58477;48.072;11.970;2023-02-28T07:13:51;14.95;;;8.88;;
65206;SDS011;58477;48.072;11.970;2023-02-28T07:16:20;15.70;;;9.77;;
65206;SDS011;58477;48.072;11.970;2023-02-28T07:18:46;17.88;;;10.20;;
65206;SDS011;58477;48.072;11.970;2023-02-28T07:21:11;18.20;;;10.98;;
65206;SDS011;58477;48.072;11.970;2023-02-28T07:23:37;20.67;;;12.30;;
65206;SDS011;58477;48.072;11.970;2023-02-28T07:26:04;16.30;;;9.60;;
65206;SDS011;58477;48.072;11.970;2023-02-28T07:28:30;16.02;;;9.50;;
65206;SDS011;58477;48.072;11.970;2023-02-28T07:30:56;14.15;;;8.13;;
65206;SDS011;58477;48.072;11.970;2023-02-28T07:33:21;15.95;;;9.48;;
65206;SDS011;58477;48.072;11.970;2023-02-28T07:35:48;22.50;;;12.70;;
65206;SDS011;58477;48.072;11.970;2023-02-28T07:38:14;20.65;;;11.85;;
65206;SDS011;58477;48.072;11.970;2023-02-28T07:40:40;17.50;;;11.77;;
65206;SDS011;58477;48.072;11.970;2023-02-28T07:43:05;18.58;;;10.38;;
65206;SDS011;58477;48.072;11.970;2023-02-28T07:45:31;14.43;;;8.82;;
65206;SDS011;58477;48.072;11.970;2023-02-28T07:47:59;16.27;;;9.32;;
65206;SDS011;58477;48.072;11.970;2023-02-28T07:50:25;14.40;;;8.10;;
65206;SDS011;58477;48.072;11.970;2023-02-28T07:52:50;19.88;;;12.60;;
65206;SDS011;58477;48.072;11.970;2023-02-28T07:55:16;15.48;;;9.50;;
65206;SDS011;58477;48.072;11.970;2023-02-28T07:57:42;19.95;;;13.15;;
65206;SDS011;58477;48.072;11.970;2023-02-28T08:00:08;15.77;;;10.65;;
65206;SDS011;58477;48.072;11.970;2023-02-28T08:02:39;21.50;;;11.55;;
65206;SDS011;58477;48.072;11.970;2023-02-28T08:05:05;21.10;;;11.75;;
65206;SDS011;58477;48.072;11.970;2023-02-28T08:07:31;17.58;;;11.45;;
65206;SDS011;58477;48.072;11.970;2023-02-28T08:09:57;24.85;;;12.98;;
65206;SDS011;58477;48.072;11.970;2023-02-28T08:12:22;15.13;;;10.32;;
65206;SDS011;58477;48.072;11.970;2023-02-28T08:14:48;16.83;;;9.38;;
65206;SDS011;58477;48.072;11.970;2023-02-28T08:17:13;19.08;;;11.10;;
65206;SDS011;58477;48.072;11.970;2023-02-28T08:19:39;23.02;;;12.80;;
65206;SDS011;58477;48.072;11.970;2023-02-28T08:22:04;12.45;;;7.13;;
65206;SDS011;58477;48.072;11.970;2023-02-28T08:24:29;13.18;;;9.27;;
65206;SDS011;58477;48.072;11.970;2023-02-28T08:26:55;14.98;;;10.57;;
65206;SDS011;58477;48.072;11.970;2023-02-28T08:29:21;21.48;;;12.68;;
65206;SDS011;58477;48.072;11.970;2023-02-28T08:31:46;19.15;;;11.57;;
65206;SDS011;58477;48.072;11.970;2023-02-28T08:34:12;21.38;;;13.38;;
65206;SDS011;58477;48.072;11.970;2023-02-28T08:36:39;18.63;;;11.35;;
65206;SDS011;58477;48.072;11.970;2023-02-28T08:39:05;16.08;;;9.93;;
65206;SDS011;58477;48.072;11.970;2023-02-28T08:41:31;18.30;;;11.48;;
65206;SDS011;58477;48.072;11.970;2023-02-28T08:43:56;15.70;;;9.27;;
65206;SDS011;58477;48.072;11.970;2023-02-28T08:46:22;18.10;;;11.55;;
65206;SDS011;58477;48.072;11.970;2023-02-28T08:48:51;18.00;;;12.35;;
65206;SDS011;58477;48.072;11.970;2023-02-28T08:51:18;20.50;;;12.38;;
65206;SDS011;58477;48.072;11.970;2023-02-28T08:53:47;23.20;;;14.55;;
65206;SDS011;58477;48.072;11.970;2023-02-28T08:56:14;16.52;;;10.43;;
65206;SDS011;58477;48.072;11.970;2023-02-28T08:58:43;18.30;;;12.10;;
65206;SDS011;58477;48.072;11.970;2023-02-28T09:01:10;16.73;;;10.65;;
65206;SDS011;58477;48.072;11.970;2023-02-28T09:03:41;16.95;;;10.65;;
65206;SDS011;58477;48.072;11.970;2023-02-28T09:06:07;17.27;;;9.82;;
65206;SDS011;58477;48.072;11.970;2023-02-28T09:08:34;17.20;;;11.27;;
65206;SDS011;58477;48.072;11.970;2023-02-28T09:11:00;20.23;;;12.15;;
65206;SDS011;58477;48.072;11.970;2023-02-28T09:13:26;19.55;;;11.45;;
65206;SDS011;58477;48.072;11.970;2023-02-28T09:15:53;17.85;;;11.93;;
65206;SDS011;58477;48.072;11.970;2023-02-28T09:18:19;22.30;;;13.38;;
65206;SDS011;58477;48.072;11.970;2023-02-28T09:20:45;17.30;;;10.65;;
65206;SDS011;58477;48.072;11.970;2023-02-28T09:23:11;23.63;;;14.45;;
65206;SDS011;58477;48.072;11.970;2023-02-28T09:25:38;19.00;;;11.82;;
65206;SDS011;58477;48.072;11.970;2023-02-28T09:28:11;21.33;;;11.13;;
65206;SDS011;58477;48.072;11.970;2023-02-28T09:30:36;20.33;;;12.88;;
65206;SDS011;58477;48.072;11.970;2023-02-28T09:33:02;27.27;;;13.63;;
65206;SDS011;58477;48.072;11.970;2023-02-28T09:35:28;17.42;;;11.38;;
65206;SDS011;58477;48.072;11.970;2023-02-28T09:37:55;18.10;;;11.40;;
65206;SDS011;58477;48.072;11.970;2023-02-28T09:40:23;16.90;;;10.18;;
65206;SDS011;58477;48.072;11.970;2023-02-28T09:42:51;17.88;;;9.63;;
65206;SDS011;58477;48.072;11.970;2023-02-28T09:47:47;21.52;;;12.00;;
65206;SDS011;58477;48.072;11.970;2023-02-28T09:50:26;15.25;;;9.98;;
65206;SDS011;58477;48.072;11.970;2023-02-28T09:53:26;18.35;;;9.80;;
65206;SDS011;58477;48.072;11.970;2023-02-28T10:10:44;20.17;;;14.38;;
65206;SDS011;58477;48.072;11.970;2023-02-28T10:13:13;17.80;;;10.60;;
65206;SDS011;58477;48.072;11.970;2023-02-28T10:15:42;13.18;;;8.70;;
65206;SDS011;58477;48.072;11.970;2023-02-28T10:18:13;23.83;;;8.48;;
65206;SDS011;58477;48.072;11.970;2023-02-28T10:20:41;18.95;;;10.63;;
65206;SDS011;58477;48.072;11.970;2023-02-28T10:23:17;11.35;;;8.23;;
65206;SDS011;58477;48.072;11.970;2023-02-28T10:25:53;21.65;;;12.43;;
65206;SDS011;58477;48.072;11.970;2023-02-28T10:28:24;13.43;;;8.43;;
65206;SDS011;58477;48.072;11.970;2023-02-28T10:30:51;15.57;;;11.07;;
65206;SDS011;58477;48.072;11.970;2023-02-28T10:33:22;12.70;;;9.07;;
65206;SDS011;58477;48.072;11.970;2023-02-28T10:35:50;18.88;;;11.93;;
65206;SDS011;58477;48.072;11.970;2023-02-28T10:38:38;13.93;;;8.43;;
65206;SDS011;58477;48.072;11.970;2023-02-28T10:41:14;19.50;;;9.95;;
65206;SDS011;58477;48.072;11.970;2023-02-28T10:46:58;19.00;;;11.18;;
65206;SDS011;58477;48.072;11.970;2023-02-28T10:49:28;14.57;;;10.35;;
65206;SDS011;58477;48.072;11.970;2023-02-28T10:51:58;15.57;;;9.55;;
65206;SDS011;58477;48.072;11.970;2023-02-28T10:54:31;19.88;;;11.38;;
65206;SDS011;58477;48.072;11.970;2023-02-28T10:57:15;20.05;;;12.77;;
65206;SDS011;58477;48.072;11.970;2023-02-28T10:59:41;13.98;;;9.48;;
65206;SDS011;58477;48.072;11.970;2023-02-28T11:07:25;17.48;;;12.00;;
65206;SDS011;58477;48.072;11.970;2023-02-28T11:09:53;17.25;;;10.90;;
65206;SDS011;58477;48.072;11.970;2023-02-28T11:12:33;17.92;;;9.70;;
65206;SDS011;58477;48.072;11.970;2023-02-28T11:17:52;19.35;;;10.65;;
65206;SDS011;58477;48.072;11.970;2023-02-28T11:20:22;19.23;;;11.07;;
65206;SDS011;58477;48.072;11.970;2023-02-28T11:22:50;14.13;;;10.40;;
65206;SDS011;58477;48.072;11.970;2023-02-28T11:25:26;17.05;;;10.93;;
65206;SDS011;58477;48.072;11.970;2023-02-28T11:27:56;16.20;;;11.05;;
65206;SDS011;58477;48.072;11.970;2023-02-28T11:30:30;15.68;;;11.23;;
65206;SDS011;58477;48.072;11.970;2023-02-28T11:33:18;15.82;;;10.68;;
65206;SDS011;58477;48.072;11.970;2023-02-28T11:35:52;16.35;;;8.98;;
65206;SDS011;58477;48.072;11.970;2023-02-28T11:38:19;17.00;;;11.13;;
65206;SDS011;58477;48.072;11.970;2023-02-28T11:40:58;17.50;;;10.88;;
65206;SDS011;58477;48.072;11.970;2023-02-28T11:43:38;19.13;;;11.07;;
65206;SDS011;58477;48.072;11.970;2023-02-28T11:54:09;14.35;;;9.18;;
65206;SDS011;58477;48.072;11.970;2023-02-28T11:56:39;16.88;;;10.18;;
65206;SDS011;58477;48.072;11.970;2023-02-28T12:05:10;17.80;;;11.13;;
65206;SDS011;58477;48.072;11.970;2023-02-28T12:07:50;17.55;;;10.90;;
65206;SDS011;58477;48.072;11.970;2023-02-28T12:12:59;16.40;;;9.85;;
65206;SDS011;58477;48.072;11.970;2023-02-28T12:18:20;17.42;;;11.10;;
65206;SDS011;58477;48.072;11.970;2023-02-28T12:26:55;16.70;;;10.85;;
65206;SDS011;58477;48.072;11.970;2023-02-28T12:29:25;14.43;;;10.88;;
65206;SDS011;58477;48.072;11.970;2023-02-28T12:34:38;14.93;;;10.48;;
65206;SDS011;58477;48.072;11.970;2023-02-28T12:37:10;18.35;;;11.73;;
65206;SDS011;58477;48.072;11.970;2023-02-28T12:39:44;18.15;;;11.30;;
65206;SDS011;58477;48.072;11.970;2023-02-28T12:42:15;16.05;;;11.40;;
65206;SDS011;58477;48.072;11.970;2023-02-28T12:44:51;15.50;;;11.10;;
65206;SDS011;58477;48.072;11.970;2023-02-28T12:49:52;17.65;;;11.55;;
65206;SDS011;58477;48.072;11.970;2023-02-28T12:53:09;18.60;;;10.85;;
65206;SDS011;58477;48.072;11.970;2023-02-28T12:58:31;18.00;;;11.45;;
65206;SDS011;58477;48.072;11.970;2023-02-28T13:09:34;18.13;;;10.43;;
65206;SDS011;58477;48.072;11.970;2023-02-28T13:11:59;20.80;;;11.60;;
65206;SDS011;58477;48.072;11.970;2023-02-28T13:21:49;16.98;;;8.95;;
65206;SDS011;58477;48.072;11.970;2023-02-28T13:25:01;16.73;;;11.27;;
65206;SDS011;58477;48.072;11.970;2023-02-28T13:29:39;14.15;;;9.77;;
65206;SDS011;58477;48.072;11.970;2023-02-28T13:35:15;14.48;;;9.63;;
65206;SDS011;58477;48.072;11.970;2023-02-28T13:39:47;14.90;;;9.95;;
65206;SDS011;58477;48.072;11.970;2023-02-28T13:48:34;15.65;;;9.70;;
65206;SDS011;58477;48.072;11.970;2023-02-28T13:51:38;13.63;;;9.30;;
65206;SDS011;58477;48.072;11.970;2023-02-28T13:53:59;18.25;;;11.25;;
65206;SDS011;58477;48.072;11.970;2023-02-28T13:56:42;13.18;;;9.68;;
65206;SDS011;58477;48.072;11.970;2023-02-28T14:02:16;17.13;;;10.60;;
65206;SDS011;58477;48.072;11.970;2023-02-28T14:05:40;17.13;;;10.20;;
65206;SDS011;58477;48.072;11.970;2023-02-28T14:08:03;18.70;;;10.45;;
65206;SDS011;58477;48.072;11.970;2023-02-28T14:10:41;16.58;;;9.57;;
65206;SDS011;58477;48.072;11.970;2023-02-28T14:13:13;16.17;;;10.18;;
65206;SDS011;58477;48.072;11.970;2023-02-28T14:18:31;13.70;;;9.70;;
65206;SDS011;58477;48.072;11.970;2023-02-28T14:21:08;14.45;;;9.60;;
65206;SDS011;58477;48.072;11.970;2023-02-28T14:26:05;14.35;;;9.68;;
65206;SDS011;58477;48.072;11.970;2023-02-28T14:28:47;13.30;;;8.82;;
65206;SDS011;58477;48.072;11.970;2023-02-28T14:31:23;12.93;;;8.63;;
65206;SDS011;58477;48.072;11.970;2023-02-28T14:36:21;15.40;;;10.18;;
65206;SDS011;58477;48.072;11.970;2023-02-28T14:38:52;13.23;;;9.67;;
65206;SDS011;58477;48.072;11.970;2023-02-28T14:41:31;15.57;;;9.10;;
65206;SDS011;58477;48.072;11.970;2023-02-28T14:44:00;10.13;;;7.13;;
65206;SDS011;58477;48.072;11.970;2023-02-28T14:46:37;15.55;;;9.18;;
65206;SDS011;58477;48.072;11.970;2023-02-28T14:49:04;12.15;;;8.50;;
65206;SDS011;58477;48.072;11.970;2023-02-28T14:51:32;12.57;;;8.93;;
65206;SDS011;58477;48.072;11.970;2023-02-28T14:53:59;16.33;;;8.00;;
65206;SDS011;58477;48.072;11.970;2023-02-28T14:56:35;12.55;;;9.00;;
65206;SDS011;58477;48.072;11.970;2023-02-28T14:59:02;13.55;;;8.60;;
65206;SDS011;58477;48.072;11.970;2023-02-28T15:01:28;13.65;;;8.80;;
65206;SDS011;58477;48.072;11.970;2023-02-28T15:03:57;13.10;;;8.20;;
65206;SDS011;58477;48.072;11.970;2023-02-28T15:06:24;18.30;;;8.73;;
65206;SDS011;58477;48.072;11.970;2023-02-28T15:09:06;15.60;;;8.43;;
65206;SDS011;58477;48.072;11.970;2023-02-28T15:11:33;15.20;;;9.18;;
65206;SDS011;58477;48.072;11.970;2023-02-28T15:13:58;14.00;;;8.85;;
65206;SDS011;58477;48.072;11.970;2023-02-28T15:16:26;14.15;;;9.07;;
65206;SDS011;58477;48.072;11.970;2023-02-28T15:18:59;11.52;;;8.30;;
65206;SDS011;58477;48.072;11.970;2023-02-28T15:21:27;17.90;;;11.60;;
65206;SDS011;58477;48.072;11.970;2023-02-28T15:26:57;16.25;;;8.85;;
65206;SDS011;58477;48.072;11.970;2023-02-28T15:29:25;14.70;;;9.55;;
65206;SDS011;58477;48.072;11.970;2023-02-28T15:34:29;13.25;;;8.05;;
65206;SDS011;58477;48.072;11.970;2023-02-28T15:36:58;13.97;;;9.13;;
65206;SDS011;58477;48.072;11.970;2023-02-28T15:39:25;12.60;;;8.15;;
65206;SDS011;58477;48.072;11.970;2023-02-28T15:41:52;12.70;;;8.57;;
65206;SDS011;58477;48.072;11.970;2023-02-28T15:44:35;12.82;;;8.30;;
65206;SDS011;58477;48.072;11.970;2023-02-28T15:47:14;13.98;;;8.15;;
65206;SDS011;58477;48.072;11.970;2023-02-28T15:49:49;12.13;;;8.13;;
65206;SDS011;58477;48.072;11.970;2023-02-28T15:52:29;14.52;;;9.63;;
65206;SDS011;58477;48.072;11.970;2023-02-28T15:55:11;14.00;;;8.68;;
65206;SDS011;58477;48.072;11.970;2023-02-28T16:00:12;12.38;;;8.65;;
65206;SDS011;58477;48.072;11.970;2023-02-28T16:02:40;12.50;;;8.50;;
65206;SDS011;58477;48.072;11.970;2023-02-28T16:07:38;13.98;;;9.38;;
65206;SDS011;58477;48.072;11.970;2023-02-28T16:10:06;13.70;;;8.90;;
65206;SDS011;58477;48.072;11.970;2023-02-28T16:12:33;17.58;;;9.65;;
65206;SDS011;58477;48.072;11.970;2023-02-28T16:15:02;13.68;;;9.95;;
65206;SDS011;58477;48.072;11.970;2023-02-28T16:17:35;15.13;;;9.60;;
65206;SDS011;58477;48.072;11.970;2023-02-28T16:20:22;16.92;;;10.30;;
65206;SDS011;58477;48.072;11.970;2023-02-28T16:22:53;13.32;;;8.57;;
65206;SDS011;58477;48.072;11.970;2023-02-28T16:25:20;14.55;;;9.55;;
65206;SDS011;58477;48.072;11.970;2023-02-28T16:27:50;17.05;;;9.18;;
65206;SDS011;58477;48.072;11.970;2023-02-28T16:30:22;14.25;;;9.25;;
65206;SDS011;58477;48.072;11.970;2023-02-28T16:32:50;14.27;;;9.20;;
65206;SDS011;58477;48.072;11.970;2023-02-28T16:35:17;19.92;;;9.35;;
65206;SDS011;58477;48.072;11.970;2023-02-28T16:37:44;16.02;;;9.15;;
65206;SDS011;58477;48.072;11.970;2023-02-28T16:43:38;13.80;;;8.38;;
65206;SDS011;58477;48.072;11.970;2023-02-28T16:46:04;16.20;;;10.20;;
65206;SDS011;58477;48.072;11.970;2023-02-28T16:48:30;14.15;;;9.15;;
65206;SDS011;58477;48.072;11.970;2023-02-28T16:50:56;17.13;;;10.63;;
65206;SDS011;58477;48.072;11.970;2023-02-28T16:53:22;15.00;;;9.18;;
65206;SDS011;58477;48.072;11.970;2023-02-28T16:55:47;14.07;;;9.57;;
65206;SDS011;58477;48.072;11.970;2023-02-28T16:58:13;18.02;;;9.68;;
65206;SDS011;58477;48.072;11.970;2023-02-28T17:00:41;14.57;;;9.52;;
65206;SDS011;58477;48.072;11.970;2023-02-28T17:03:10;15.50;;;9.32;;
65206;SDS011;58477;48.072;11.970;2023-02-28T17:05:47;16.70;;;11.32;;